createdAt,value
2023-02-22T00:01:08.309Z,97295.37
2023-02-22T00:03:36.871Z,97300.05
2023-02-22T00:06:06.496Z,97298.74
2023-02-22T00:08:37.135Z,97297.98
2023-02-22T00:11:08.962Z,97302.00
2023-02-22T00:13:38.662Z,97307.21
2023-02-22T00:16:07.500Z,97312.20
2023-02-22T00:18:35.632Z,97312.89
2023-02-22T00:21:04.127Z,97310.17
2023-02-22T00:23:32.191Z,97309.05
2023-02-22T00:26:01.361Z,97311.90
2023-02-22T00:28:30.893Z,97311.73
2023-02-22T00:31:00.108Z,97307.65
2023-02-22T00:33:28.871Z,97305.54
2023-02-22T00:35:56.816Z,97309.73
2023-02-22T00:38:25.441Z,97310.02
2023-02-22T00:40:53.674Z,97309.45
2023-02-22T00:43:22.054Z,97309.09
2023-02-22T00:45:50.275Z,97312.18
2023-02-22T00:48:19.721Z,97307.83
2023-02-22T00:50:48.836Z,97308.20
2023-02-22T00:53:16.896Z,97311.23
2023-02-22T00:55:45.183Z,97313.31
2023-02-22T00:58:13.557Z,97312.73
2023-02-22T01:00:43.080Z,97314.44
2023-02-22T01:03:13.586Z,97314.77
2023-02-22T01:05:42.191Z,97311.23
2023-02-22T01:08:13.147Z,97308.86
2023-02-22T01:10:41.301Z,97312.34
2023-02-22T01:13:12.541Z,97312.48
2023-02-22T01:15:43.481Z,97310.04
2023-02-22T01:18:12.987Z,97312.14
2023-02-22T01:20:41.156Z,97314.70
2023-02-22T01:23:10.699Z,97314.95
2023-02-22T01:25:38.907Z,97315.27
2023-02-22T01:28:09.527Z,97312.41
2023-02-22T01:30:37.721Z,97309.55
2023-02-22T01:33:07.775Z,97308.52
2023-02-22T01:35:41.012Z,97309.73
2023-02-22T01:38:10.443Z,97309.99
2023-02-22T01:40:44.149Z,97309.76
2023-02-22T01:43:27.305Z,97310.86
2023-02-22T01:46:01.425Z,97314.41
2023-02-22T01:48:36.087Z,97316.50
2023-02-22T01:51:11.165Z,97313.41
2023-02-22T01:54:01.459Z,97315.06
2023-02-22T01:56:32.898Z,97317.95
2023-02-22T01:59:12.263Z,97316.44
2023-02-22T02:01:44.962Z,97315.67
2023-02-22T02:04:19.593Z,97317.69
2023-02-22T02:06:48.179Z,97320.06
2023-02-22T02:09:25.268Z,97323.39
2023-02-22T02:11:54.050Z,97321.00
2023-02-22T02:14:22.638Z,97326.16
2023-02-22T02:16:53.532Z,97325.31
2023-02-22T02:19:24.600Z,97322.51
2023-02-22T02:22:08.026Z,97325.00
2023-02-22T02:24:57.728Z,97325.88
2023-02-22T02:27:55.417Z,97329.60
2023-02-22T02:30:26.333Z,97326.10
2023-02-22T02:33:16.455Z,97324.02
2023-02-22T02:36:08.068Z,97330.98
2023-02-22T02:38:45.185Z,97333.09
2023-02-22T02:41:27.208Z,97333.46
2023-02-22T02:44:13.908Z,97332.70
2023-02-22T02:46:48.775Z,97337.61
2023-02-22T02:49:22.510Z,97341.10
2023-02-22T02:51:55.229Z,97343.60
2023-02-22T02:54:24.541Z,97345.09
2023-02-22T02:56:53.680Z,97344.54
2023-02-22T02:59:28.051Z,97350.06
2023-02-22T03:02:23.555Z,97351.31
2023-02-22T03:05:00.710Z,97348.56
2023-02-22T03:07:57.113Z,97350.22
2023-02-22T03:11:02.010Z,97352.34
2023-02-22T03:13:39.200Z,97352.45
2023-02-22T03:16:10.278Z,97357.88
2023-02-22T03:18:51.977Z,97356.98
2023-02-22T03:21:36.242Z,97356.31
2023-02-22T03:24:17.023Z,97357.58
2023-02-22T03:27:03.028Z,97361.21
2023-02-22T03:29:37.508Z,97367.23
2023-02-22T03:32:09.970Z,97365.69
2023-02-22T03:34:43.070Z,97364.98
2023-02-22T03:37:29.093Z,97365.02
2023-02-22T03:40:00.913Z,97365.99
2023-02-22T03:42:35.856Z,97364.52
2023-02-22T03:45:10.142Z,97364.74
2023-02-22T03:47:46.185Z,97363.09
2023-02-22T03:50:19.075Z,97365.53
2023-02-22T03:52:47.689Z,97368.52
2023-02-22T03:55:23.909Z,97372.08
2023-02-22T03:57:57.986Z,97369.75
2023-02-22T04:00:30.250Z,97371.48
2023-02-22T04:02:58.989Z,97369.24
2023-02-22T04:05:27.105Z,97370.31
2023-02-22T04:07:58.150Z,97367.91
2023-02-22T04:10:27.796Z,97366.85
2023-02-22T04:12:55.846Z,97372.14
2023-02-22T04:15:24.934Z,97376.84
2023-02-22T04:17:57.923Z,97376.84
2023-02-22T04:20:26.330Z,97375.44
2023-02-22T04:23:05.382Z,97380.77
2023-02-22T04:25:33.716Z,97381.86
2023-02-22T04:28:12.213Z,97380.92
2023-02-22T04:30:54.306Z,97381.52
2023-02-22T04:33:23.925Z,97380.27
2023-02-22T04:35:52.013Z,97383.45
2023-02-22T04:38:20.588Z,97380.27
2023-02-22T04:40:49.306Z,97379.71
2023-02-22T04:43:17.966Z,97381.88
2023-02-22T04:45:46.244Z,97385.00
2023-02-22T04:48:14.619Z,97389.23
2023-02-22T04:50:42.889Z,97388.08
2023-02-22T04:53:11.221Z,97387.83
2023-02-22T04:55:39.755Z,97391.80
2023-02-22T04:58:09.486Z,97393.96
2023-02-22T05:00:38.552Z,97397.67
2023-02-22T05:03:07.757Z,97399.86
2023-02-22T05:05:35.652Z,97403.42
2023-02-22T05:08:03.670Z,97407.46
2023-02-22T05:10:31.936Z,97411.63
2023-02-22T05:13:00.127Z,97409.78
2023-02-22T05:15:28.180Z,97408.73
2023-02-22T05:17:56.283Z,97411.39
2023-02-22T05:20:27.822Z,97414.19
2023-02-22T05:22:57.645Z,97414.69
2023-02-22T05:25:27.123Z,97415.23
2023-02-22T05:27:57.963Z,97415.16
2023-02-22T05:30:30.671Z,97414.74
2023-02-22T05:32:59.523Z,97420.17
2023-02-22T05:35:29.161Z,97423.64
2023-02-22T05:37:57.829Z,97429.99
2023-02-22T05:40:26.942Z,97434.63
2023-02-22T05:42:57.153Z,97439.04
2023-02-22T05:45:27.495Z,97439.62
2023-02-22T05:47:55.868Z,97437.96
2023-02-22T05:50:24.963Z,97442.39
2023-02-22T05:52:53.941Z,97440.70
2023-02-22T05:55:23.954Z,97441.91
2023-02-22T05:57:52.759Z,97445.27
2023-02-22T06:00:31.259Z,97451.73
2023-02-22T06:03:02.719Z,97454.13
2023-02-22T06:05:31.088Z,97456.73
2023-02-22T06:08:01.616Z,97460.77
2023-02-22T06:10:30.399Z,97458.11
2023-02-22T06:13:00.014Z,97463.39
2023-02-22T06:15:29.642Z,97461.86
2023-02-22T06:17:58.956Z,97471.61
2023-02-22T06:20:29.408Z,97479.90
2023-02-22T06:22:59.191Z,97483.11
2023-02-22T06:25:33.046Z,97486.21
2023-02-22T06:28:01.353Z,97490.48
2023-02-22T06:30:30.586Z,97495.95
2023-02-22T06:32:58.733Z,97498.71
2023-02-22T06:35:26.865Z,97503.39
2023-02-22T06:37:54.956Z,97503.40
2023-02-22T06:40:23.236Z,97509.48
2023-02-22T06:42:51.610Z,97511.94
2023-02-22T06:45:19.868Z,97512.85
2023-02-22T06:47:49.761Z,97513.41
2023-02-22T06:50:23.281Z,97513.69
2023-02-22T06:52:52.072Z,97519.39
2023-02-22T06:55:23.462Z,97521.17
2023-02-22T06:57:52.413Z,97522.20
2023-02-22T07:00:22.952Z,97523.95
2023-02-22T07:02:51.900Z,97528.03
2023-02-22T07:05:22.459Z,97528.14
2023-02-22T07:07:55.392Z,97531.09
2023-02-22T07:10:27.838Z,97534.05
2023-02-22T07:12:56.511Z,97535.34
2023-02-22T07:15:26.437Z,97539.36
2023-02-22T07:17:54.358Z,97538.73
2023-02-22T07:20:28.090Z,97537.30
2023-02-22T07:22:56.500Z,97535.91
2023-02-22T07:25:24.941Z,97536.55
2023-02-22T07:27:53.234Z,97530.27
2023-02-22T07:30:26.586Z,97534.13
2023-02-22T07:32:55.494Z,97532.40
2023-02-22T07:35:32.461Z,97531.92
2023-02-22T07:38:00.575Z,97529.73
2023-02-22T07:40:29.260Z,97528.15
2023-02-22T07:42:57.345Z,97528.91
2023-02-22T07:45:28.640Z,97531.05
2023-02-22T07:47:57.781Z,97529.55
2023-02-22T07:50:28.222Z,97531.41
2023-02-22T07:52:58.615Z,97532.61
2023-02-22T07:55:29.160Z,97533.96
2023-02-22T07:58:00.402Z,97536.31
2023-02-22T08:00:34.019Z,97537.85
2023-02-22T08:03:05.034Z,97536.86
2023-02-22T08:05:36.314Z,97535.85
2023-02-22T08:08:06.205Z,97535.91
2023-02-22T08:10:36.001Z,97535.95
2023-02-22T08:13:05.934Z,97536.95
2023-02-22T08:15:39.127Z,97534.73
2023-02-22T08:18:18.484Z,97531.63
2023-02-22T08:20:48.761Z,97532.10
2023-02-22T08:23:18.181Z,97532.36
2023-02-22T08:25:46.354Z,97533.19
2023-02-22T08:28:18.305Z,97530.58
2023-02-22T08:30:46.761Z,97529.60
2023-02-22T08:33:19.546Z,97531.34
2023-02-22T08:35:49.861Z,97532.50
2023-02-22T08:38:29.864Z,97531.10
2023-02-22T08:40:57.936Z,97531.06
2023-02-22T08:43:26.372Z,97528.51
2023-02-22T08:45:57.298Z,97521.50
2023-02-22T08:48:25.738Z,97521.55
2023-02-22T08:50:54.102Z,97520.31
2023-02-22T08:53:22.148Z,97524.05
2023-02-22T08:55:50.254Z,97528.03
2023-02-22T08:58:18.346Z,97522.78
2023-02-22T09:00:46.556Z,97519.29
2023-02-22T09:03:15.486Z,97520.20
2023-02-22T09:05:44.827Z,97520.80
2023-02-22T09:08:13.128Z,97523.41
2023-02-22T09:10:41.203Z,97521.80
2023-02-22T09:13:09.376Z,97524.26
2023-02-22T09:15:39.828Z,97525.73
2023-02-22T09:18:10.085Z,97524.82
2023-02-22T09:20:38.113Z,97521.25
2023-02-22T09:23:09.932Z,97518.89
2023-02-22T09:25:41.102Z,97511.22
2023-02-22T09:28:10.452Z,97509.88
2023-02-22T09:30:39.038Z,97507.92
2023-02-22T09:33:12.782Z,97505.13
2023-02-22T09:35:42.938Z,97501.59
2023-02-22T09:38:11.792Z,97501.27
2023-02-22T09:40:47.866Z,97499.88
2023-02-22T09:43:33.955Z,97505.17
2023-02-22T09:46:28.014Z,97499.95
2023-02-22T09:49:18.093Z,97498.90
2023-02-22T09:52:02.776Z,97498.11
2023-02-22T09:54:41.388Z,97501.23
2023-02-22T09:57:18.182Z,97492.50
2023-02-22T10:00:13.824Z,97495.16
2023-02-22T10:03:15.424Z,97497.16
2023-02-22T10:05:56.979Z,97494.95
2023-02-22T10:08:31.262Z,97490.00
2023-02-22T10:11:24.385Z,97488.85
2023-02-22T10:14:11.189Z,97485.33
2023-02-22T10:16:47.917Z,97488.21
2023-02-22T10:19:29.696Z,97481.67
2023-02-22T10:22:00.332Z,97479.65
2023-02-22T10:25:09.801Z,97474.30
2023-02-22T10:27:42.397Z,97473.14
2023-02-22T10:30:27.877Z,97471.05
2023-02-22T10:33:05.479Z,97464.24
2023-02-22T10:35:37.587Z,97465.83
2023-02-22T10:38:20.430Z,97466.23
2023-02-22T10:40:56.671Z,97461.13
2023-02-22T10:43:25.893Z,97456.20
2023-02-22T10:45:58.096Z,97451.91
2023-02-22T10:48:29.236Z,97450.06
2023-02-22T10:51:03.800Z,97447.69
2023-02-22T10:53:33.976Z,97448.77
2023-02-22T10:56:09.767Z,97450.03
2023-02-22T10:58:49.241Z,97447.70
2023-02-22T11:01:41.064Z,97447.11
2023-02-22T11:04:13.466Z,97440.95
2023-02-22T11:06:45.660Z,97441.36
2023-02-22T11:09:22.551Z,97446.11
2023-02-22T11:12:09.568Z,97441.50
2023-02-22T11:14:39.215Z,97439.67
2023-02-22T11:17:10.830Z,97433.91
2023-02-22T11:19:47.237Z,97436.32
2023-02-22T11:22:23.566Z,97433.34
2023-02-22T11:24:57.415Z,97434.34
2023-02-22T11:27:34.013Z,97434.34
2023-02-22T11:30:27.035Z,97430.86
2023-02-22T11:33:03.629Z,97433.05
2023-02-22T11:35:39.128Z,97430.52
2023-02-22T11:38:31.704Z,97430.62
2023-02-22T11:41:05.991Z,97431.27
2023-02-22T11:43:34.466Z,97430.60
2023-02-22T11:46:08.372Z,97429.61
2023-02-22T11:48:39.620Z,97431.30
2023-02-22T11:51:26.938Z,97427.31
2023-02-22T11:54:31.413Z,97424.15
2023-02-22T11:57:11.756Z,97421.29
2023-02-22T11:59:55.980Z,97420.65
2023-02-22T12:02:56.582Z,97416.30
2023-02-22T12:05:44.001Z,97421.84
2023-02-22T12:08:26.480Z,97416.02
2023-02-22T12:11:20.099Z,97415.09
2023-02-22T12:14:26.201Z,97407.33
2023-02-22T12:17:14.041Z,97410.04
2023-02-22T12:19:49.188Z,97410.55
2023-02-22T12:22:29.619Z,97411.50
2023-02-22T12:25:09.342Z,97411.92
2023-02-22T12:27:59.196Z,97409.06
2023-02-22T12:30:31.195Z,97411.14
2023-02-22T12:33:05.385Z,97412.48
2023-02-22T12:35:42.928Z,97406.64
2023-02-22T12:38:38.257Z,97403.58
2023-02-22T12:41:27.694Z,97402.17
2023-02-22T12:44:17.501Z,97407.21
2023-02-22T12:46:55.316Z,97403.67
2023-02-22T12:49:51.838Z,97403.10
2023-02-22T12:52:38.742Z,97405.10
2023-02-22T12:55:16.817Z,97403.85
2023-02-22T12:57:54.653Z,97405.16
2023-02-22T13:00:39.177Z,97404.05
2023-02-22T13:03:25.642Z,97404.77
2023-02-22T13:06:22.552Z,97408.48
2023-02-22T13:08:56.567Z,97413.77
2023-02-22T13:11:54.661Z,97412.86
2023-02-22T13:14:35.505Z,97415.00
2023-02-22T13:17:09.103Z,97411.71
2023-02-22T13:19:40.247Z,97413.45
2023-02-22T13:22:14.265Z,97411.88
2023-02-22T13:25:03.394Z,97413.16
2023-02-22T13:27:42.373Z,97412.48
2023-02-22T13:30:27.233Z,97414.83
2023-02-22T13:32:58.762Z,97414.91
2023-02-22T13:35:35.829Z,97417.69
2023-02-22T13:38:45.080Z,97414.91
2023-02-22T13:41:16.078Z,97415.84
2023-02-22T13:43:47.182Z,97416.21
2023-02-22T13:46:37.359Z,97413.75
2023-02-22T13:49:14.612Z,97414.23
2023-02-22T13:51:50.801Z,97414.30
2023-02-22T13:54:51.214Z,97413.46
2023-02-22T13:57:36.499Z,97407.48
2023-02-22T14:00:21.162Z,97411.27
2023-02-22T14:03:01.932Z,97413.39
2023-02-22T14:05:41.469Z,97415.72
2023-02-22T14:08:36.776Z,97419.81
2023-02-22T14:11:06.815Z,97416.33
2023-02-22T14:13:55.250Z,97416.62
2023-02-22T14:16:28.715Z,97414.75
2023-02-22T14:19:13.596Z,97415.97
2023-02-22T14:22:02.308Z,97418.98
2023-02-22T14:24:51.108Z,97421.29
2023-02-22T14:27:19.383Z,97421.12
2023-02-22T14:29:57.813Z,97423.30
2023-02-22T14:32:34.626Z,97424.60
2023-02-22T14:35:25.436Z,97425.38
2023-02-22T14:37:58.122Z,97427.90
2023-02-22T14:40:28.997Z,97430.92
2023-02-22T14:43:12.220Z,97436.08
2023-02-22T14:45:47.892Z,97436.54
2023-02-22T14:48:28.666Z,97438.50
2023-02-22T14:51:19.148Z,97438.85
2023-02-22T14:54:01.338Z,97438.18
2023-02-22T14:56:49.368Z,97439.48
2023-02-22T14:59:25.214Z,97439.66
2023-02-22T15:02:12.930Z,97441.44
2023-02-22T15:04:44.143Z,97443.38
2023-02-22T15:07:32.422Z,97443.70
2023-02-22T15:10:24.016Z,97443.13
2023-02-22T15:13:10.595Z,97440.91
2023-02-22T15:15:49.168Z,97441.62
2023-02-22T15:18:30.196Z,97443.35
2023-02-22T15:21:06.544Z,97442.35
2023-02-22T15:23:45.561Z,97439.16
2023-02-22T15:26:22.975Z,97439.30
2023-02-22T15:29:00.919Z,97442.20
2023-02-22T15:31:35.330Z,97446.44
2023-02-22T15:34:15.736Z,97447.35
2023-02-22T15:36:46.061Z,97444.55
2023-02-22T15:39:25.616Z,97446.48
2023-02-22T15:42:19.344Z,97446.35
2023-02-22T15:44:50.125Z,97450.98
2023-02-22T15:47:24.106Z,97453.62
2023-02-22T15:50:37.547Z,97454.88
2023-02-22T15:53:09.500Z,97458.18
2023-02-22T15:55:40.346Z,97457.91
2023-02-22T15:58:19.372Z,97455.27
2023-02-22T16:00:51.127Z,97454.09
2023-02-22T16:03:23.992Z,97458.70
2023-02-22T16:05:56.728Z,97462.92
2023-02-22T16:08:54.120Z,97466.52
2023-02-22T16:11:43.309Z,97465.70
2023-02-22T16:14:36.631Z,97470.74
2023-02-22T16:17:35.817Z,97471.35
2023-02-22T16:20:17.895Z,97474.30
2023-02-22T16:22:50.509Z,97480.81
2023-02-22T16:25:18.652Z,97483.78
2023-02-22T16:27:49.655Z,97488.08
2023-02-22T16:30:24.076Z,97489.94
2023-02-22T16:32:55.550Z,97498.34
2023-02-22T16:35:32.710Z,97499.17
2023-02-22T16:38:04.237Z,97498.79
2023-02-22T16:40:39.819Z,97498.73
2023-02-22T16:43:13.011Z,97506.02
2023-02-22T16:45:42.578Z,97514.41
2023-02-22T16:48:27.425Z,97515.32
2023-02-22T16:50:59.223Z,97518.66
2023-02-22T16:53:31.098Z,97520.13
2023-02-22T16:56:05.505Z,97526.25
2023-02-22T16:58:38.892Z,97531.55
2023-02-22T17:01:07.694Z,97535.34
2023-02-22T17:03:35.882Z,97533.95
2023-02-22T17:06:05.266Z,97533.58
2023-02-22T17:08:33.432Z,97532.59
2023-02-22T17:11:01.793Z,97536.98
2023-02-22T17:13:30.229Z,97536.64
2023-02-22T17:15:58.441Z,97543.36
2023-02-22T17:18:28.829Z,97543.80
2023-02-22T17:20:57.092Z,97546.14
2023-02-22T17:23:26.785Z,97545.96
2023-02-22T17:26:03.595Z,97549.51
2023-02-22T17:28:32.198Z,97548.69
2023-02-22T17:31:01.940Z,97547.13
2023-02-22T17:33:34.637Z,97549.55
2023-02-22T17:36:03.923Z,97553.45
2023-02-22T17:38:32.450Z,97554.45
2023-02-22T17:41:01.633Z,97553.92
2023-02-22T17:43:30.105Z,97554.16
2023-02-22T17:45:58.254Z,97550.92
2023-02-22T17:48:26.618Z,97551.08
2023-02-22T17:50:54.946Z,97549.88
2023-02-22T17:53:25.091Z,97549.79
2023-02-22T17:55:53.311Z,97552.42
2023-02-22T17:58:22.845Z,97554.52
2023-02-22T18:00:51.955Z,97554.70
2023-02-22T18:03:26.032Z,97552.40
2023-02-22T18:05:57.773Z,97552.02
2023-02-22T18:08:29.049Z,97551.46
2023-02-22T18:10:57.078Z,97550.27
2023-02-22T18:13:27.781Z,97548.65
2023-02-22T18:16:00.227Z,97548.54
2023-02-22T18:18:28.732Z,97552.45
2023-02-22T18:21:00.121Z,97553.50
2023-02-22T18:23:30.786Z,97552.16
2023-02-22T18:26:10.817Z,97551.73
2023-02-22T18:28:40.617Z,97553.41
2023-02-22T18:31:10.589Z,97552.80
2023-02-22T18:33:38.813Z,97549.59
2023-02-22T18:36:07.791Z,97553.31
2023-02-22T18:38:35.901Z,97550.27
2023-02-22T18:41:05.986Z,97553.13
2023-02-22T18:43:35.775Z,97556.83
2023-02-22T18:46:09.327Z,97558.30
2023-02-22T18:48:38.807Z,97560.59
2023-02-22T18:51:10.389Z,97562.84
2023-02-22T18:53:41.477Z,97564.11
2023-02-22T18:56:16.415Z,97565.42
2023-02-22T18:58:45.667Z,97568.46
2023-02-22T19:01:18.536Z,97569.42
2023-02-22T19:03:49.353Z,97572.22
2023-02-22T19:06:19.484Z,97570.05
2023-02-22T19:08:48.814Z,97572.27
2023-02-22T19:11:23.224Z,97573.46
2023-02-22T19:13:56.269Z,97577.06
2023-02-22T19:16:26.542Z,97577.57
2023-02-22T19:18:58.260Z,97577.76
2023-02-22T19:21:28.484Z,97578.41
2023-02-22T19:24:02.031Z,97580.61
2023-02-22T19:26:30.494Z,97580.65
2023-02-22T19:29:05.030Z,97584.04
2023-02-22T19:31:34.108Z,97584.70
2023-02-22T19:34:05.412Z,97588.45
2023-02-22T19:36:33.572Z,97587.85
2023-02-22T19:39:02.252Z,97587.11
2023-02-22T19:41:31.475Z,97585.41
2023-02-22T19:44:01.167Z,97586.64
2023-02-22T19:46:29.207Z,97590.83
2023-02-22T19:48:58.745Z,97589.52
2023-02-22T19:51:28.843Z,97593.56
2023-02-22T19:54:05.426Z,97596.08
2023-02-22T19:56:35.679Z,97594.25
2023-02-22T19:59:13.553Z,97596.05
2023-02-22T20:01:44.612Z,97597.71
2023-02-22T20:04:18.564Z,97601.87
2023-02-22T20:06:57.743Z,97600.52
2023-02-22T20:09:30.086Z,97603.01
2023-02-22T20:11:58.591Z,97601.39
2023-02-22T20:14:30.744Z,97605.80
2023-02-22T20:16:58.914Z,97604.59
2023-02-22T20:19:28.525Z,97607.86
2023-02-22T20:21:56.774Z,97608.39
2023-02-22T20:24:25.391Z,97605.42
2023-02-22T20:26:55.977Z,97606.42
2023-02-22T20:29:29.588Z,97604.87
2023-02-22T20:32:01.014Z,97604.71
2023-02-22T20:34:33.727Z,97608.02
2023-02-22T20:37:02.679Z,97602.49
2023-02-22T20:39:31.215Z,97604.69
2023-02-22T20:42:00.665Z,97607.33
2023-02-22T20:44:29.074Z,97605.77
2023-02-22T20:46:57.378Z,97605.93
2023-02-22T20:49:27.470Z,97604.23
2023-02-22T20:51:55.565Z,97598.41
2023-02-22T20:54:23.864Z,97598.85
2023-02-22T20:56:53.118Z,97598.73
2023-02-22T20:59:22.031Z,97597.89
2023-02-22T21:01:53.155Z,97596.70
2023-02-22T21:04:24.274Z,97595.94
2023-02-22T21:06:52.789Z,97595.92
2023-02-22T21:09:23.039Z,97595.09
2023-02-22T21:11:51.108Z,97592.20
2023-02-22T21:14:20.260Z,97591.33
2023-02-22T21:16:50.110Z,97588.88
2023-02-22T21:19:25.928Z,97585.02
2023-02-22T21:21:59.840Z,97588.73
2023-02-22T21:24:29.248Z,97586.44
2023-02-22T21:27:00.711Z,97588.50
2023-02-22T21:29:29.398Z,97587.20
2023-02-22T21:31:57.959Z,97588.04
2023-02-22T21:34:26.461Z,97592.02
2023-02-22T21:36:54.545Z,97589.34
2023-02-22T21:39:28.354Z,97589.24
2023-02-22T21:42:00.828Z,97590.98
2023-02-22T21:44:29.572Z,97593.15
2023-02-22T21:46:57.885Z,97594.27
2023-02-22T21:49:25.943Z,97590.52
2023-02-22T21:51:53.986Z,97588.77
2023-02-22T21:54:23.118Z,97591.27
2023-02-22T21:56:51.555Z,97594.67
2023-02-22T21:59:23.533Z,97595.55
2023-02-22T22:01:56.062Z,97595.17
2023-02-22T22:04:29.851Z,97592.66
2023-02-22T22:06:59.654Z,97591.42
2023-02-22T22:09:34.557Z,97590.87
2023-02-22T22:12:05.993Z,97592.40
2023-02-22T22:14:35.331Z,97593.00
2023-02-22T22:17:07.162Z,97586.25
2023-02-22T22:19:40.567Z,97589.48
2023-02-22T22:22:09.665Z,97591.11
2023-02-22T22:24:38.260Z,97591.27
2023-02-22T22:27:09.763Z,97595.16
2023-02-22T22:29:37.978Z,97593.11
2023-02-22T22:32:06.816Z,97594.33
2023-02-22T22:34:37.950Z,97592.00
2023-02-22T22:37:06.173Z,97594.83
2023-02-22T22:39:34.229Z,97598.49
2023-02-22T22:42:02.420Z,97597.24
2023-02-22T22:44:33.052Z,97601.34
2023-02-22T22:47:01.325Z,97602.52
2023-02-22T22:49:31.552Z,97600.99
2023-02-22T22:52:00.036Z,97601.73
2023-02-22T22:54:29.038Z,97600.48
2023-02-22T22:56:57.502Z,97596.70
2023-02-22T22:59:25.669Z,97598.48
2023-02-22T23:01:56.627Z,97601.10
2023-02-22T23:04:25.596Z,97603.82
2023-02-22T23:06:55.452Z,97605.10
2023-02-22T23:09:30.487Z,97604.34
2023-02-22T23:12:10.179Z,97598.75
2023-02-22T23:14:45.577Z,97597.63
2023-02-22T23:17:26.901Z,97596.48
2023-02-22T23:19:55.229Z,97597.34
2023-02-22T23:22:23.909Z,97596.99
2023-02-22T23:24:52.055Z,97600.17
2023-02-22T23:27:20.338Z,97598.46
2023-02-22T23:29:49.720Z,97602.39
2023-02-22T23:32:17.777Z,97600.88
2023-02-22T23:34:49.841Z,97601.02
2023-02-22T23:37:20.709Z,97602.92
2023-02-22T23:39:51.015Z,97604.68
2023-02-22T23:42:19.313Z,97606.57
2023-02-22T23:44:48.323Z,97607.46
2023-02-22T23:47:16.469Z,97605.28
2023-02-22T23:49:49.469Z,97606.64
2023-02-22T23:52:24.330Z,97607.48
2023-02-22T23:54:54.242Z,97609.21
2023-02-22T23:57:24.216Z,97606.11
2023-02-22T23:59:52.499Z,97607.80
